sensor_id;sensor_type;location;lat;lon;timestamp;pressure;altitude;pressure_sealevel;temperature;humidity
74329;BME280;62749;51.982;5.916;2023-08-07T00:01:49;100939.78;;;13.64;100.00
74329;BME280;62749;51.982;5.916;2023-08-07T00:04:18;100945.28;;;13.61;100.00
74329;BME280;62749;51.982;5.916;2023-08-07T00:06:47;100945.28;;;13.61;100.00
74329;BME280;62749;51.982;5.916;2023-08-07T00:09:19;100929.41;;;13.59;100.00
74329;BME280;62749;51.982;5.916;2023-08-07T00:11:49;100941.06;;;13.57;100.00
74329;BME280;62749;51.982;5.916;2023-08-07T00:14:18;100941.22;;;13.54;100.00
74329;BME280;62749;51.982;5.916;2023-08-07T00:16:47;100935.13;;;13.52;100.00
74329;BME280;62749;51.982;5.916;2023-08-07T00:19:17;100940.28;;;13.55;100.00
74329;BME280;62749;51.982;5.916;2023-08-07T00:21:46;100934.19;;;13.53;100.00
74329;BME280;62749;51.982;5.916;2023-08-07T00:24:28;100939.44;;;13.54;100.00
74329;BME280;62749;51.982;5.916;2023-08-07T00:26:57;100938.56;;;13.54;100.00
74329;BME280;62749;51.982;5.916;2023-08-07T00:29:27;100944.91;;;13.51;100.00
74329;BME280;62749;51.982;5.916;2023-08-07T00:31:56;100949.50;;;13.47;100.00
74329;BME280;62749;51.982;5.916;2023-08-07T00:34:25;100948.25;;;13.55;100.00
74329;BME280;62749;51.982;5.916;2023-08-07T00:36:54;100944.81;;;13.53;100.00
74329;BME280;62749;51.982;5.916;2023-08-07T00:39:24;100950.06;;;13.54;100.00
74329;BME280;62749;51.982;5.916;2023-08-07T00:41:56;100949.56;;;13.46;100.00
74329;BME280;62749;51.982;5.916;2023-08-07T00:44:26;100949.50;;;13.47;100.00
74329;BME280;62749;51.982;5.916;2023-08-07T00:46:55;100948.59;;;13.48;100.00
74329;BME280;62749;51.982;5.916;2023-08-07T00:49:25;100953.72;;;13.52;100.00
74329;BME280;62749;51.982;5.916;2023-08-07T00:51:55;100961.66;;;13.52;100.00
74329;BME280;62749;51.982;5.916;2023-08-07T00:54:25;100962.44;;;13.54;100.00
74329;BME280;62749;51.982;5.916;2023-08-07T00:57:04;100965.09;;;13.54;100.00
74329;BME280;62749;51.982;5.916;2023-08-07T00:59:38;100972.22;;;13.53;100.00
74329;BME280;62749;51.982;5.916;2023-08-07T01:02:09;100966.97;;;13.52;100.00
74329;BME280;62749;51.982;5.916;2023-08-07T01:04:39;100965.44;;;13.47;100.00
74329;BME280;62749;51.982;5.916;2023-08-07T01:07:09;100970.75;;;13.47;100.00
74329;BME280;62749;51.982;5.916;2023-08-07T01:09:38;100970.56;;;13.50;100.00
74329;BME280;62749;51.982;5.916;2023-08-07T01:12:16;100970.91;;;13.44;100.00
74329;BME280;62749;51.982;5.916;2023-08-07T01:15:07;100966.53;;;13.43;100.00
74329;BME280;62749;51.982;5.916;2023-08-07T01:17:42;100970.91;;;13.44;100.00
74329;BME280;62749;51.982;5.916;2023-08-07T01:20:13;100968.47;;;13.40;100.00
74329;BME280;62749;51.982;5.916;2023-08-07T01:22:45;100972.69;;;13.44;100.00
74329;BME280;62749;51.982;5.916;2023-08-07T01:25:15;100968.59;;;13.37;100.00
74329;BME280;62749;51.982;5.916;2023-08-07T01:27:50;100978.16;;;13.41;100.00
74329;BME280;62749;51.982;5.916;2023-08-07T01:30:29;100978.06;;;13.42;100.00
74329;BME280;62749;51.982;5.916;2023-08-07T01:33:06;100978.06;;;13.42;100.00
74329;BME280;62749;51.982;5.916;2023-08-07T01:35:43;100990.41;;;13.43;100.00
74329;BME280;62749;51.982;5.916;2023-08-07T01:38:16;100986.31;;;13.36;100.00
74329;BME280;62749;51.982;5.916;2023-08-07T01:40:47;100990.63;;;13.39;100.00
74329;BME280;62749;51.982;5.916;2023-08-07T01:43:18;100982.88;;;13.34;100.00
74329;BME280;62749;51.982;5.916;2023-08-07T01:45:48;100984.66;;;13.33;100.00
74329;BME280;62749;51.982;5.916;2023-08-07T01:48:17;100982.94;;;13.32;100.00
74329;BME280;62749;51.982;5.916;2023-08-07T01:50:47;100988.81;;;13.39;100.00
74329;BME280;62749;51.982;5.916;2023-08-07T01:53:19;100983.59;;;13.38;100.00
74329;BME280;62749;51.982;5.916;2023-08-07T01:55:48;100985.19;;;13.42;100.00
74329;BME280;62749;51.982;5.916;2023-08-07T01:58:17;100992.56;;;13.35;100.00
74329;BME280;62749;51.982;5.916;2023-08-07T02:00:46;100980.94;;;13.38;100.00
74329;BME280;62749;51.982;5.916;2023-08-07T02:03:16;100990.56;;;13.40;100.00
74329;BME280;62749;51.982;5.916;2023-08-07T02:05:45;100987.66;;;13.45;100.00
74329;BME280;62749;51.982;5.916;2023-08-07T02:08:15;100990.03;;;13.51;100.00
74329;BME280;62749;51.982;5.916;2023-08-07T02:10:47;100991.75;;;13.52;100.00
74329;BME280;62749;51.982;5.916;2023-08-07T02:13:16;100998.75;;;13.53;100.00
74329;BME280;62749;51.982;5.916;2023-08-07T02:15:45;101005.84;;;13.53;100.00
74329;BME280;62749;51.982;5.916;2023-08-07T02:18:15;101004.84;;;13.55;100.00
74329;BME280;62749;51.982;5.916;2023-08-07T02:20:44;100995.88;;;13.58;100.00
74329;BME280;62749;51.982;5.916;2023-08-07T02:23:15;101004.75;;;13.57;100.00
74329;BME280;62749;51.982;5.916;2023-08-07T02:25:47;101001.97;;;13.60;100.00
74329;BME280;62749;51.982;5.916;2023-08-07T02:28:17;101015.28;;;13.58;100.00
74329;BME280;62749;51.982;5.916;2023-08-07T02:30:46;101007.34;;;13.58;100.00
74329;BME280;62749;51.982;5.916;2023-08-07T02:33:17;101012.63;;;13.58;100.00
74329;BME280;62749;51.982;5.916;2023-08-07T02:35:44;101025.38;;;13.52;100.00
74329;BME280;62749;51.982;5.916;2023-08-07T02:38:13;101019.28;;;13.49;100.00
74329;BME280;62749;51.982;5.916;2023-08-07T02:40:43;101030.13;;;13.45;100.00
74329;BME280;62749;51.982;5.916;2023-08-07T02:43:15;101033.66;;;13.45;100.00
74329;BME280;62749;51.982;5.916;2023-08-07T02:45:44;101025.69;;;13.45;100.00
74329;BME280;62749;51.982;5.916;2023-08-07T02:48:14;101019.44;;;13.46;100.00
74329;BME280;62749;51.982;5.916;2023-08-07T02:50:44;101014.06;;;13.48;100.00
74329;BME280;62749;51.982;5.916;2023-08-07T02:53:13;101012.97;;;13.52;100.00
74329;BME280;62749;51.982;5.916;2023-08-07T02:55:43;101019.28;;;13.49;100.00
74329;BME280;62749;51.982;5.916;2023-08-07T02:58:14;101016.47;;;13.53;100.00
74329;BME280;62749;51.982;5.916;2023-08-07T03:00:44;101012.97;;;13.52;100.00
74329;BME280;62749;51.982;5.916;2023-08-07T03:03:13;101012.03;;;13.53;100.00
74329;BME280;62749;51.982;5.916;2023-08-07T03:05:48;101004.13;;;13.52;100.00
74329;BME280;62749;51.982;5.916;2023-08-07T03:08:18;101003.97;;;13.55;100.00
74329;BME280;62749;51.982;5.916;2023-08-07T03:10:52;100993.50;;;13.52;100.00
74329;BME280;62749;51.982;5.916;2023-08-07T03:13:25;101002.41;;;13.50;100.00
74329;BME280;62749;51.982;5.916;2023-08-07T03:16:01;100995.56;;;13.46;100.00
74329;BME280;62749;51.982;5.916;2023-08-07T03:18:31;100995.56;;;13.46;100.00
74329;BME280;62749;51.982;5.916;2023-08-07T03:21:01;101005.44;;;13.43;100.00
74329;BME280;62749;51.982;5.916;2023-08-07T03:23:30;101001.03;;;13.43;100.00
74329;BME280;62749;51.982;5.916;2023-08-07T03:26:03;101001.66;;;13.48;100.00
74329;BME280;62749;51.982;5.916;2023-08-07T03:28:36;101003.81;;;13.40;100.00
74329;BME280;62749;51.982;5.916;2023-08-07T03:31:06;101007.25;;;13.42;100.00
74329;BME280;62749;51.982;5.916;2023-08-07T03:33:35;100995.97;;;13.37;100.00
74329;BME280;62749;51.982;5.916;2023-08-07T03:36:05;100993.22;;;13.40;100.00
74329;BME280;62749;51.982;5.916;2023-08-07T03:38:34;100988.94;;;13.36;100.00
74329;BME280;62749;51.982;5.916;2023-08-07T03:41:04;100978.19;;;13.39;100.00
74329;BME280;62749;51.982;5.916;2023-08-07T03:43:36;100983.28;;;13.44;100.00
74329;BME280;62749;51.982;5.916;2023-08-07T03:46:05;100987.97;;;13.39;100.00
74329;BME280;62749;51.982;5.916;2023-08-07T03:48:34;100985.38;;;13.37;100.00
74329;BME280;62749;51.982;5.916;2023-08-07T03:51:04;100982.59;;;13.40;100.00
74329;BME280;62749;51.982;5.916;2023-08-07T03:53:34;100979.00;;;13.41;100.00
74329;BME280;62749;51.982;5.916;2023-08-07T03:56:04;100974.50;;;13.43;100.00
74329;BME280;62749;51.982;5.916;2023-08-07T03:58:36;100979.78;;;13.43;100.00
74329;BME280;62749;51.982;5.916;2023-08-07T04:01:05;100970.13;;;13.42;100.00
74329;BME280;62749;51.982;5.916;2023-08-07T04:03:34;100971.91;;;13.42;100.00
74329;BME280;62749;51.982;5.916;2023-08-07T04:06:04;100965.84;;;13.38;100.00
74329;BME280;62749;51.982;5.916;2023-08-07T04:08:36;100969.31;;;13.40;100.00
74329;BME280;62749;51.982;5.916;2023-08-07T04:11:07;100969.31;;;13.40;100.00
74329;BME280;62749;51.982;5.916;2023-08-07T04:13:39;100971.91;;;13.42;100.00
74329;BME280;62749;51.982;5.916;2023-08-07T04:16:08;100965.84;;;13.40;100.00
74329;BME280;62749;51.982;5.916;2023-08-07T04:18:38;100973.91;;;13.37;100.00
74329;BME280;62749;51.982;5.916;2023-08-07T04:21:07;100979.94;;;13.40;100.00
74329;BME280;62749;51.982;5.916;2023-08-07T04:23:36;100983.28;;;13.44;100.00
74329;BME280;62749;51.982;5.916;2023-08-07T04:26:06;100981.00;;;13.36;100.00
74329;BME280;62749;51.982;5.916;2023-08-07T04:28:35;100992.03;;;13.46;100.00
74329;BME280;62749;51.982;5.916;2023-08-07T04:31:07;100992.13;;;13.44;100.00
74329;BME280;62749;51.982;5.916;2023-08-07T04:33:36;100989.47;;;13.44;100.00
74329;BME280;62749;51.982;5.916;2023-08-07T04:36:06;100989.53;;;13.43;100.00
74329;BME280;62749;51.982;5.916;2023-08-07T04:38:35;100993.84;;;13.45;100.00
74329;BME280;62749;51.982;5.916;2023-08-07T04:41:04;101001.66;;;13.48;100.00
74329;BME280;62749;51.982;5.916;2023-08-07T04:43:34;101007.56;;;13.54;100.00
74329;BME280;62749;51.982;5.916;2023-08-07T04:46:03;101010.38;;;13.50;100.00
74329;BME280;62749;51.982;5.916;2023-08-07T04:48:35;101001.66;;;13.48;100.00
74329;BME280;62749;51.982;5.916;2023-08-07T04:51:04;100998.13;;;13.48;100.00
74329;BME280;62749;51.982;5.916;2023-08-07T04:53:34;101008.50;;;13.53;100.00
74329;BME280;62749;51.982;5.916;2023-08-07T04:56:03;100999.47;;;13.57;100.00
74329;BME280;62749;51.982;5.916;2023-08-07T04:58:33;101012.63;;;13.58;100.00
74329;BME280;62749;51.982;5.916;2023-08-07T05:01:02;101012.88;;;13.54;100.00
74329;BME280;62749;51.982;5.916;2023-08-07T05:03:35;101024.13;;;13.59;100.00
74329;BME280;62749;51.982;5.916;2023-08-07T05:06:04;101017.00;;;13.59;100.00
74329;BME280;62749;51.982;5.916;2023-08-07T05:08:35;101022.19;;;13.62;100.00
74329;BME280;62749;51.982;5.916;2023-08-07T05:11:04;101017.72;;;13.63;100.00
74329;BME280;62749;51.982;5.916;2023-08-07T05:13:34;101023.91;;;13.63;100.00
74329;BME280;62749;51.982;5.916;2023-08-07T05:16:03;101033.50;;;13.66;100.00
74329;BME280;62749;51.982;5.916;2023-08-07T05:18:35;101025.53;;;13.66;100.00
74329;BME280;62749;51.982;5.916;2023-08-07T05:21:05;101043.03;;;13.70;100.00
74329;BME280;62749;51.982;5.916;2023-08-07T05:23:35;101045.03;;;13.65;100.00
74329;BME280;62749;51.982;5.916;2023-08-07T05:26:04;101040.66;;;13.64;100.00
74329;BME280;62749;51.982;5.916;2023-08-07T05:28:34;101041.53;;;13.64;100.00
74329;BME280;62749;51.982;5.916;2023-08-07T05:31:03;101045.59;;;13.72;100.00
74329;BME280;62749;51.982;5.916;2023-08-07T05:33:35;101058.81;;;13.73;100.00
74329;BME280;62749;51.982;5.916;2023-08-07T05:36:05;101060.66;;;13.71;100.00
74329;BME280;62749;51.982;5.916;2023-08-07T05:38:34;101057.88;;;13.74;100.00
74329;BME280;62749;51.982;5.916;2023-08-07T05:41:04;101062.22;;;13.75;100.00
74329;BME280;62749;51.982;5.916;2023-08-07T05:43:33;101064.03;;;13.75;100.00
74329;BME280;62749;51.982;5.916;2023-08-07T05:46:02;101063.00;;;13.77;100.00
74329;BME280;62749;51.982;5.916;2023-08-07T05:48:35;101073.38;;;13.82;100.00
74329;BME280;62749;51.982;5.916;2023-08-07T05:51:04;101066.28;;;13.83;100.00
74329;BME280;62749;51.982;5.916;2023-08-07T05:53:35;101063.25;;;13.90;100.00
74329;BME280;62749;51.982;5.916;2023-08-07T05:56:04;101073.00;;;13.90;100.00
74329;BME280;62749;51.982;5.916;2023-08-07T05:58:33;101083.59;;;13.90;100.00
74329;BME280;62749;51.982;5.916;2023-08-07T06:01:03;101069.50;;;13.89;100.00
74329;BME280;62749;51.982;5.916;2023-08-07T06:03:35;101069.09;;;13.97;100.00
74329;BME280;62749;51.982;5.916;2023-08-07T06:06:04;101083.16;;;13.99;100.00
74329;BME280;62749;51.982;5.916;2023-08-07T06:08:33;101081.44;;;13.98;100.00
74329;BME280;62749;51.982;5.916;2023-08-07T06:11:03;101086.56;;;14.01;100.00
74329;BME280;62749;51.982;5.916;2023-08-07T06:13:34;101084.69;;;14.03;100.00
74329;BME280;62749;51.982;5.916;2023-08-07T06:16:04;101093.53;;;14.04;100.00
74329;BME280;62749;51.982;5.916;2023-08-07T06:18:36;101108.00;;;13.98;100.00
74329;BME280;62749;51.982;5.916;2023-08-07T06:21:06;101103.00;;;14.09;100.00
74329;BME280;62749;51.982;5.916;2023-08-07T06:23:37;101105.50;;;14.13;100.00
74329;BME280;62749;51.982;5.916;2023-08-07T06:26:07;101102.59;;;14.17;100.00
74329;BME280;62749;51.982;5.916;2023-08-07T06:28:36;101111.25;;;14.21;100.00
74329;BME280;62749;51.982;5.916;2023-08-07T06:31:07;101118.13;;;14.25;100.00
74329;BME280;62749;51.982;5.916;2023-08-07T06:33:39;101115.13;;;14.31;100.00
74329;BME280;62749;51.982;5.916;2023-08-07T06:36:08;101123.44;;;14.25;100.00
74329;BME280;62749;51.982;5.916;2023-08-07T06:38:38;101119.06;;;14.24;100.00
74329;BME280;62749;51.982;5.916;2023-08-07T06:41:07;101125.06;;;14.27;100.00
74329;BME280;62749;51.982;5.916;2023-08-07T06:43:36;101124.00;;;14.32;100.00
74329;BME280;62749;51.982;5.916;2023-08-07T06:46:06;101124.03;;;14.30;100.00
74329;BME280;62749;51.982;5.916;2023-08-07T06:48:39;101131.09;;;14.31;100.00
74329;BME280;62749;51.982;5.916;2023-08-07T06:51:08;101127.19;;;14.38;100.00
74329;BME280;62749;51.982;5.916;2023-08-07T06:53:38;101130.28;;;14.47;100.00
74329;BME280;62749;51.982;5.916;2023-08-07T06:56:07;101143.94;;;14.56;100.00
74329;BME280;62749;51.982;5.916;2023-08-07T06:58:36;101142.66;;;14.64;100.00
74329;BME280;62749;51.982;5.916;2023-08-07T07:01:06;101141.63;;;14.66;100.00
74329;BME280;62749;51.982;5.916;2023-08-07T07:03:35;101141.34;;;14.72;100.00
74329;BME280;62749;51.982;5.916;2023-08-07T07:06:08;101145.31;;;14.81;100.00
74329;BME280;62749;51.982;5.916;2023-08-07T07:08:37;101148.09;;;14.96;100.00
74329;BME280;62749;51.982;5.916;2023-08-07T07:11:06;101148.69;;;15.01;100.00
74329;BME280;62749;51.982;5.916;2023-08-07T07:13:36;101147.66;;;15.03;100.00
74329;BME280;62749;51.982;5.916;2023-08-07T07:16:06;101159.25;;;15.02;100.00
74329;BME280;62749;51.982;5.916;2023-08-07T07:18:37;101145.75;;;15.06;100.00
74329;BME280;62749;51.982;5.916;2023-08-07T07:21:09;101160.28;;;15.16;100.00
74329;BME280;62749;51.982;5.916;2023-08-07T07:23:38;101170.75;;;15.19;100.00
74329;BME280;62749;51.982;5.916;2023-08-07T07:26:08;101167.31;;;15.17;100.00
74329;BME280;62749;51.982;5.916;2023-08-07T07:28:37;101182.53;;;15.15;100.00
74329;BME280;62749;51.982;5.916;2023-08-07T07:31:10;101182.25;;;15.19;100.00
74329;BME280;62749;51.982;5.916;2023-08-07T07:33:39;101180.38;;;15.22;100.00
74329;BME280;62749;51.982;5.916;2023-08-07T07:36:17;101181.31;;;15.21;100.00
74329;BME280;62749;51.982;5.916;2023-08-07T07:38:47;101194.78;;;15.17;100.00
74329;BME280;62749;51.982;5.916;2023-08-07T07:41:17;101208.50;;;15.10;100.00
74329;BME280;62749;51.982;5.916;2023-08-07T07:43:46;101204.28;;;15.06;100.00
74329;BME280;62749;51.982;5.916;2023-08-07T07:46:16;101207.72;;;15.08;100.00
74329;BME280;62749;51.982;5.916;2023-08-07T07:48:45;101207.06;;;15.20;100.00
74329;BME280;62749;51.982;5.916;2023-08-07T07:51:17;101200.31;;;15.46;100.00
74329;BME280;62749;51.982;5.916;2023-08-07T07:53:46;101201.41;;;15.58;100.00
74329;BME280;62749;51.982;5.916;2023-08-07T07:56:16;101205.38;;;15.51;100.00
74329;BME280;62749;51.982;5.916;2023-08-07T07:58:45;101204.25;;;15.55;100.00
74329;BME280;62749;51.982;5.916;2023-08-07T08:01:15;101195.81;;;15.63;100.00
74329;BME280;62749;51.982;5.916;2023-08-07T08:03:44;101209.84;;;15.67;100.00
74329;BME280;62749;51.982;5.916;2023-08-07T08:06:13;101207.66;;;15.57;99.26
74329;BME280;62749;51.982;5.916;2023-08-07T08:08:45;101208.25;;;15.30;97.09
74329;BME280;62749;51.982;5.916;2023-08-07T08:11:15;101232.88;;;15.18;96.19
74329;BME280;62749;51.982;5.916;2023-08-07T08:13:44;101231.34;;;15.14;96.71
74329;BME280;62749;51.982;5.916;2023-08-07T08:16:14;101237.78;;;15.10;97.01
74329;BME280;62749;51.982;5.916;2023-08-07T08:18:43;101235.94;;;14.94;96.19
74329;BME280;62749;51.982;5.916;2023-08-07T08:21:13;101250.03;;;14.96;98.11
74329;BME280;62749;51.982;5.916;2023-08-07T08:23:44;101242.66;;;15.01;97.35
74329;BME280;62749;51.982;5.916;2023-08-07T08:26:14;101247.47;;;15.11;97.47
74329;BME280;62749;51.982;5.916;2023-08-07T08:28:43;101249.16;;;15.29;96.37
74329;BME280;62749;51.982;5.916;2023-08-07T08:31:12;101257.41;;;15.41;95.60
74329;BME280;62749;51.982;5.916;2023-08-07T08:33:50;101246.66;;;15.58;94.52
74329;BME280;62749;51.982;5.916;2023-08-07T08:36:19;101249.16;;;15.61;94.16
74329;BME280;62749;51.982;5.916;2023-08-07T08:38:51;101264.13;;;15.80;91.91
74329;BME280;62749;51.982;5.916;2023-08-07T08:41:21;101255.47;;;15.92;89.28
74329;BME280;62749;51.982;5.916;2023-08-07T08:43:52;101266.59;;;16.15;91.11
74329;BME280;62749;51.982;5.916;2023-08-07T08:46:24;101264.25;;;16.25;87.93
74329;BME280;62749;51.982;5.916;2023-08-07T08:48:57;101263.94;;;16.15;89.33
74329;BME280;62749;51.982;5.916;2023-08-07T08:51:27;101267.13;;;16.06;87.53
74329;BME280;62749;51.982;5.916;2023-08-07T08:54:01;101282.16;;;15.91;89.96
74329;BME280;62749;51.982;5.916;2023-08-07T08:56:32;101284.47;;;15.49;94.23
74329;BME280;62749;51.982;5.916;2023-08-07T08:59:03;101282.69;;;15.16;95.62
74329;BME280;62749;51.982;5.916;2023-08-07T09:01:32;101295.69;;;15.04;97.69
74329;BME280;62749;51.982;5.916;2023-08-07T09:04:02;101296.31;;;15.10;99.31
74329;BME280;62749;51.982;5.916;2023-08-07T09:06:32;101283.13;;;15.24;100.00
74329;BME280;62749;51.982;5.916;2023-08-07T09:09:05;101287.09;;;15.33;100.00
74329;BME280;62749;51.982;5.916;2023-08-07T09:11:36;101293.03;;;15.38;100.00
74329;BME280;62749;51.982;5.916;2023-08-07T09:14:07;101294.84;;;15.38;99.21
74329;BME280;62749;51.982;5.916;2023-08-07T09:16:37;101295.28;;;15.46;98.72
74329;BME280;62749;51.982;5.916;2023-08-07T09:19:07;101299.66;;;15.63;98.49
74329;BME280;62749;51.982;5.916;2023-08-07T09:21:37;101295.78;;;15.69;98.19
74329;BME280;62749;51.982;5.916;2023-08-07T09:24:09;101295.72;;;15.70;97.07
74329;BME280;62749;51.982;5.916;2023-08-07T09:26:42;101291.81;;;15.93;96.44
74329;BME280;62749;51.982;5.916;2023-08-07T09:29:12;101294.09;;;16.16;94.35
74329;BME280;62749;51.982;5.916;2023-08-07T09:31:43;101290.53;;;16.31;91.22
74329;BME280;62749;51.982;5.916;2023-08-07T09:34:14;101299.47;;;16.61;90.91
74329;BME280;62749;51.982;5.916;2023-08-07T09:36:44;101295.44;;;16.84;90.60
74329;BME280;62749;51.982;5.916;2023-08-07T09:39:23;101306.25;;;16.66;85.78
74329;BME280;62749;51.982;5.916;2023-08-07T09:41:53;101316.91;;;16.52;87.64
74329;BME280;62749;51.982;5.916;2023-08-07T09:44:23;101311.81;;;16.47;87.88
74329;BME280;62749;51.982;5.916;2023-08-07T09:46:52;101330.69;;;16.44;87.40
74329;BME280;62749;51.982;5.916;2023-08-07T09:49:21;101324.63;;;16.56;86.84
74329;BME280;62749;51.982;5.916;2023-08-07T09:51:51;101328.59;;;16.80;86.76
74329;BME280;62749;51.982;5.916;2023-08-07T09:54:23;101326.41;;;16.86;84.55
74329;BME280;62749;51.982;5.916;2023-08-07T09:56:55;101321.41;;;16.96;86.87
74329;BME280;62749;51.982;5.916;2023-08-07T09:59:26;101315.91;;;16.99;84.27
74329;BME280;62749;51.982;5.916;2023-08-07T10:01:56;101319.59;;;17.11;84.50
74329;BME280;62749;51.982;5.916;2023-08-07T10:04:26;101327.84;;;17.23;81.70
74329;BME280;62749;51.982;5.916;2023-08-07T10:06:56;101328.09;;;17.32;81.32
74329;BME280;62749;51.982;5.916;2023-08-07T10:09:30;101320.19;;;17.45;80.37
74329;BME280;62749;51.982;5.916;2023-08-07T10:12:02;101330.13;;;17.43;76.83
74329;BME280;62749;51.982;5.916;2023-08-07T10:14:31;101335.81;;;17.66;78.44
74329;BME280;62749;51.982;5.916;2023-08-07T10:17:02;101326.81;;;17.82;75.78
74329;BME280;62749;51.982;5.916;2023-08-07T10:19:31;101326.09;;;17.65;73.66
74329;BME280;62749;51.982;5.916;2023-08-07T10:22:02;101346.91;;;17.45;75.67
74329;BME280;62749;51.982;5.916;2023-08-07T10:24:40;101330.69;;;17.34;75.83
74329;BME280;62749;51.982;5.916;2023-08-07T10:27:14;101346.63;;;17.50;73.21
74329;BME280;62749;51.982;5.916;2023-08-07T10:29:47;101343.81;;;17.66;72.80
74329;BME280;62749;51.982;5.916;2023-08-07T10:32:22;101344.56;;;17.83;73.04
74329;BME280;62749;51.982;5.916;2023-08-07T10:34:54;101350.50;;;17.88;75.03
74329;BME280;62749;51.982;5.916;2023-08-07T10:37:38;101350.31;;;17.76;71.50
74329;BME280;62749;51.982;5.916;2023-08-07T10:40:12;101357.38;;;17.77;70.53
74329;BME280;62749;51.982;5.916;2023-08-07T10:42:59;101357.00;;;17.98;69.11
74329;BME280;62749;51.982;5.916;2023-08-07T10:45:29;101359.47;;;17.87;69.32
74329;BME280;62749;51.982;5.916;2023-08-07T10:48:03;101364.06;;;17.41;70.71
74329;BME280;62749;51.982;5.916;2023-08-07T10:50:35;101372.44;;;17.49;73.77
74329;BME280;62749;51.982;5.916;2023-08-07T10:53:19;101367.28;;;17.75;72.67
74329;BME280;62749;51.982;5.916;2023-08-07T10:55:52;101375.88;;;17.95;72.43
74329;BME280;62749;51.982;5.916;2023-08-07T10:58:25;101381.69;;;17.87;71.91
74329;BME280;62749;51.982;5.916;2023-08-07T11:01:15;101376.75;;;17.81;70.26
74329;BME280;62749;51.982;5.916;2023-08-07T11:03:48;101365.94;;;18.92;69.48
74329;BME280;62749;51.982;5.916;2023-08-07T11:06:19;101384.38;;;20.37;62.38
74329;BME280;62749;51.982;5.916;2023-08-07T11:08:50;101373.19;;;21.95;57.59
74329;BME280;62749;51.982;5.916;2023-08-07T11:11:23;101363.66;;;22.02;54.63
74329;BME280;62749;51.982;5.916;2023-08-07T11:13:53;101379.63;;;22.26;53.72
74329;BME280;62749;51.982;5.916;2023-08-07T11:16:23;101373.03;;;23.48;50.59
74329;BME280;62749;51.982;5.916;2023-08-07T11:18:53;101380.88;;;24.01;48.31
74329;BME280;62749;51.982;5.916;2023-08-07T11:21:23;101383.81;;;24.49;46.32
74329;BME280;62749;51.982;5.916;2023-08-07T11:23:54;101383.72;;;24.00;47.18
74329;BME280;62749;51.982;5.916;2023-08-07T11:26:26;101376.53;;;24.20;46.56
74329;BME280;62749;51.982;5.916;2023-08-07T11:28:56;101382.91;;;22.95;48.28
74329;BME280;62749;51.982;5.916;2023-08-07T11:31:25;101387.00;;;21.22;53.47
74329;BME280;62749;51.982;5.916;2023-08-07T11:33:56;101387.38;;;20.08;56.34
74329;BME280;62749;51.982;5.916;2023-08-07T11:36:41;101386.03;;;19.64;58.26
74329;BME280;62749;51.982;5.916;2023-08-07T11:39:10;101386.78;;;19.40;59.69
74329;BME280;62749;51.982;5.916;2023-08-07T11:41:42;101387.50;;;20.07;57.84
74329;BME280;62749;51.982;5.916;2023-08-07T11:44:12;101383.66;;;19.59;59.18
74329;BME280;62749;51.982;5.916;2023-08-07T11:46:43;101392.69;;;19.32;60.42
74329;BME280;62749;51.982;5.916;2023-08-07T11:49:12;101391.81;;;19.45;59.66
74329;BME280;62749;51.982;5.916;2023-08-07T11:51:42;101391.28;;;19.01;61.06
74329;BME280;62749;51.982;5.916;2023-08-07T11:54:14;101387.47;;;18.78;62.22
74329;BME280;62749;51.982;5.916;2023-08-07T11:56:46;101385.38;;;18.55;64.64
74329;BME280;62749;51.982;5.916;2023-08-07T11:59:16;101392.03;;;18.35;64.48
74329;BME280;62749;51.982;5.916;2023-08-07T12:01:46;101399.56;;;18.43;65.29
74329;BME280;62749;51.982;5.916;2023-08-07T12:04:17;101392.81;;;18.78;62.52
74329;BME280;62749;51.982;5.916;2023-08-07T12:06:54;101397.53;;;18.87;59.94
74329;BME280;62749;51.982;5.916;2023-08-07T12:09:25;101403.72;;;19.15;58.86
74329;BME280;62749;51.982;5.916;2023-08-07T12:11:58;101393.88;;;19.28;58.15
74329;BME280;62749;51.982;5.916;2023-08-07T12:14:31;101389.25;;;19.30;58.15
74329;BME280;62749;51.982;5.916;2023-08-07T12:17:01;101395.34;;;19.58;59.14
74329;BME280;62749;51.982;5.916;2023-08-07T12:19:38;101396.03;;;20.12;56.96
74329;BME280;62749;51.982;5.916;2023-08-07T12:22:10;101399.31;;;19.91;57.73
74329;BME280;62749;51.982;5.916;2023-08-07T12:24:41;101383.75;;;19.97;56.79
74329;BME280;62749;51.982;5.916;2023-08-07T12:27:13;101392.19;;;20.03;59.63
74329;BME280;62749;51.982;5.916;2023-08-07T12:29:43;101403.75;;;20.17;60.45
74329;BME280;62749;51.982;5.916;2023-08-07T12:32:12;101407.84;;;20.34;57.74
74329;BME280;62749;51.982;5.916;2023-08-07T12:34:42;101401.31;;;20.38;57.40
74329;BME280;62749;51.982;5.916;2023-08-07T12:37:11;101403.03;;;20.39;58.97
74329;BME280;62749;51.982;5.916;2023-08-07T12:39:40;101407.06;;;20.45;58.30
74329;BME280;62749;51.982;5.916;2023-08-07T12:42:10;101409.47;;;20.36;56.55
74329;BME280;62749;51.982;5.916;2023-08-07T12:44:41;101411.03;;;20.15;59.59
74329;BME280;62749;51.982;5.916;2023-08-07T12:47:12;101424.16;;;20.06;56.82
74329;BME280;62749;51.982;5.916;2023-08-07T12:49:41;101415.34;;;20.04;58.33
74329;BME280;62749;51.982;5.916;2023-08-07T12:52:12;101416.50;;;20.50;57.94
74329;BME280;62749;51.982;5.916;2023-08-07T12:54:41;101411.66;;;20.80;56.64
74329;BME280;62749;51.982;5.916;2023-08-07T12:57:11;101422.56;;;20.90;50.40
74329;BME280;62749;51.982;5.916;2023-08-07T12:59:42;101406.56;;;20.88;48.70
74329;BME280;62749;51.982;5.916;2023-08-07T13:02:12;101401.28;;;21.45;54.40